sensor_id;sensor_type;location;lat;lon;timestamp;temperature;humidity
3944;DHT22;1986;52.546;13.428;2023-08-06T00:00:18;17.50;99.90
3944;DHT22;1986;52.546;13.428;2023-08-06T00:02:46;17.40;99.90
3944;DHT22;1986;52.546;13.428;2023-08-06T00:05:13;17.40;99.90
3944;DHT22;1986;52.546;13.428;2023-08-06T00:07:43;17.30;99.90
3944;DHT22;1986;52.546;13.428;2023-08-06T00:10:10;17.30;99.90
3944;DHT22;1986;52.546;13.428;2023-08-06T00:12:38;17.30;99.90
3944;DHT22;1986;52.546;13.428;2023-08-06T00:15:06;17.30;99.90
3944;DHT22;1986;52.546;13.428;2023-08-06T00:17:34;17.40;99.90
3944;DHT22;1986;52.546;13.428;2023-08-06T00:20:03;17.40;99.90
3944;DHT22;1986;52.546;13.428;2023-08-06T00:22:31;17.40;99.90
3944;DHT22;1986;52.546;13.428;2023-08-06T00:24:58;17.30;99.90
3944;DHT22;1986;52.546;13.428;2023-08-06T00:27:26;17.30;99.90
3944;DHT22;1986;52.546;13.428;2023-08-06T00:29:53;17.30;99.90
3944;DHT22;1986;52.546;13.428;2023-08-06T00:32:19;17.30;99.90
3944;DHT22;1986;52.546;13.428;2023-08-06T00:34:47;17.30;99.90
3944;DHT22;1986;52.546;13.428;2023-08-06T00:37:16;17.30;99.90
3944;DHT22;1986;52.546;13.428;2023-08-06T00:39:44;17.30;99.90
3944;DHT22;1986;52.546;13.428;2023-08-06T00:42:11;17.30;99.90
3944;DHT22;1986;52.546;13.428;2023-08-06T00:44:38;17.40;99.90
3944;DHT22;1986;52.546;13.428;2023-08-06T00:47:06;17.40;99.90
3944;DHT22;1986;52.546;13.428;2023-08-06T00:49:35;17.40;99.90
3944;DHT22;1986;52.546;13.428;2023-08-06T00:52:03;17.40;99.90
3944;DHT22;1986;52.546;13.428;2023-08-06T00:54:33;17.40;99.90
3944;DHT22;1986;52.546;13.428;2023-08-06T00:57:01;17.40;99.90
3944;DHT22;1986;52.546;13.428;2023-08-06T00:59:28;17.40;99.90
3944;DHT22;1986;52.546;13.428;2023-08-06T01:01:56;17.40;99.90
3944;DHT22;1986;52.546;13.428;2023-08-06T01:04:23;17.40;99.90
3944;DHT22;1986;52.546;13.428;2023-08-06T01:06:57;17.40;99.90
3944;DHT22;1986;52.546;13.428;2023-08-06T01:09:34;17.40;99.90
3944;DHT22;1986;52.546;13.428;2023-08-06T01:12:09;17.50;99.90
3944;DHT22;1986;52.546;13.428;2023-08-06T01:14:57;17.50;99.90
3944;DHT22;1986;52.546;13.428;2023-08-06T01:17:28;17.40;99.90
3944;DHT22;1986;52.546;13.428;2023-08-06T01:19:56;17.40;99.90
3944;DHT22;1986;52.546;13.428;2023-08-06T01:22:24;17.40;99.90
3944;DHT22;1986;52.546;13.428;2023-08-06T01:24:52;17.30;99.90
3944;DHT22;1986;52.546;13.428;2023-08-06T01:27:25;17.30;99.90
3944;DHT22;1986;52.546;13.428;2023-08-06T01:29:59;17.30;99.90
3944;DHT22;1986;52.546;13.428;2023-08-06T01:32:31;17.40;99.90
3944;DHT22;1986;52.546;13.428;2023-08-06T01:35:00;17.20;99.90
3944;DHT22;1986;52.546;13.428;2023-08-06T01:37:31;17.10;99.90
3944;DHT22;1986;52.546;13.428;2023-08-06T01:39:58;17.00;99.90
3944;DHT22;1986;52.546;13.428;2023-08-06T01:42:25;17.00;99.90
3944;DHT22;1986;52.546;13.428;2023-08-06T01:44:52;16.90;99.90
3944;DHT22;1986;52.546;13.428;2023-08-06T01:47:19;16.90;99.90
3944;DHT22;1986;52.546;13.428;2023-08-06T01:49:46;16.90;99.90
3944;DHT22;1986;52.546;13.428;2023-08-06T01:52:13;16.90;99.90
3944;DHT22;1986;52.546;13.428;2023-08-06T01:54:42;16.90;99.90
3944;DHT22;1986;52.546;13.428;2023-08-06T01:57:09;16.90;99.90
3944;DHT22;1986;52.546;13.428;2023-08-06T01:59:36;16.80;99.90
3944;DHT22;1986;52.546;13.428;2023-08-06T02:02:03;16.80;99.90
3944;DHT22;1986;52.546;13.428;2023-08-06T02:04:30;16.80;99.90
3944;DHT22;1986;52.546;13.428;2023-08-06T02:06:57;16.80;99.90
3944;DHT22;1986;52.546;13.428;2023-08-06T02:09:24;16.70;99.90
3944;DHT22;1986;52.546;13.428;2023-08-06T02:11:54;16.70;99.90
3944;DHT22;1986;52.546;13.428;2023-08-06T02:14:21;16.70;99.90
3944;DHT22;1986;52.546;13.428;2023-08-06T02:16:48;16.60;99.90
3944;DHT22;1986;52.546;13.428;2023-08-06T02:19:15;16.60;99.90
3944;DHT22;1986;52.546;13.428;2023-08-06T02:21:42;16.70;99.90
3944;DHT22;1986;52.546;13.428;2023-08-06T02:24:11;16.60;99.90
3944;DHT22;1986;52.546;13.428;2023-08-06T02:26:37;16.70;99.90
3944;DHT22;1986;52.546;13.428;2023-08-06T02:29:06;16.60;99.90
3944;DHT22;1986;52.546;13.428;2023-08-06T02:31:36;16.60;99.90
3944;DHT22;1986;52.546;13.428;2023-08-06T02:34:03;16.60;99.90
3944;DHT22;1986;52.546;13.428;2023-08-06T02:36:30;16.70;99.90
3944;DHT22;1986;52.546;13.428;2023-08-06T02:38:57;16.70;99.90
3944;DHT22;1986;52.546;13.428;2023-08-06T02:41:24;16.60;99.90
3944;DHT22;1986;52.546;13.428;2023-08-06T02:43:52;16.60;99.90
3944;DHT22;1986;52.546;13.428;2023-08-06T02:46:20;16.50;99.90
3944;DHT22;1986;52.546;13.428;2023-08-06T02:48:50;16.60;99.90
3944;DHT22;1986;52.546;13.428;2023-08-06T02:51:17;16.60;99.90
3944;DHT22;1986;52.546;13.428;2023-08-06T02:53:44;16.60;99.90
3944;DHT22;1986;52.546;13.428;2023-08-06T02:56:11;16.50;99.90
3944;DHT22;1986;52.546;13.428;2023-08-06T02:58:38;16.40;99.90
3944;DHT22;1986;52.546;13.428;2023-08-06T03:01:06;16.40;99.90
3944;DHT22;1986;52.546;13.428;2023-08-06T03:03:34;16.40;99.90
3944;DHT22;1986;52.546;13.428;2023-08-06T03:06:01;16.40;99.90
3944;DHT22;1986;52.546;13.428;2023-08-06T03:08:28;16.40;99.90
3944;DHT22;1986;52.546;13.428;2023-08-06T03:10:56;16.40;99.90
3944;DHT22;1986;52.546;13.428;2023-08-06T03:13:23;16.40;99.90
3944;DHT22;1986;52.546;13.428;2023-08-06T03:15:53;16.40;99.90
3944;DHT22;1986;52.546;13.428;2023-08-06T03:18:20;16.40;99.90
3944;DHT22;1986;52.546;13.428;2023-08-06T03:20:49;16.50;99.90
3944;DHT22;1986;52.546;13.428;2023-08-06T03:23:16;16.50;99.90
3944;DHT22;1986;52.546;13.428;2023-08-06T03:25:43;16.50;99.90
3944;DHT22;1986;52.546;13.428;2023-08-06T03:28:10;16.40;99.90
3944;DHT22;1986;52.546;13.428;2023-08-06T03:30:38;16.50;99.90
3944;DHT22;1986;52.546;13.428;2023-08-06T03:33:05;16.50;99.90
3944;DHT22;1986;52.546;13.428;2023-08-06T03:35:32;16.50;99.90
3944;DHT22;1986;52.546;13.428;2023-08-06T03:38:00;16.60;99.90
3944;DHT22;1986;52.546;13.428;2023-08-06T03:40:27;16.60;99.90
3944;DHT22;1986;52.546;13.428;2023-08-06T03:42:54;16.60;99.90
3944;DHT22;1986;52.546;13.428;2023-08-06T03:45:23;16.70;99.90
3944;DHT22;1986;52.546;13.428;2023-08-06T03:47:50;16.70;99.90
3944;DHT22;1986;52.546;13.428;2023-08-06T03:50:17;16.90;99.90
3944;DHT22;1986;52.546;13.428;2023-08-06T03:52:44;16.90;99.90
3944;DHT22;1986;52.546;13.428;2023-08-06T03:55:12;17.00;99.90
3944;DHT22;1986;52.546;13.428;2023-08-06T03:57:40;17.10;99.90
3944;DHT22;1986;52.546;13.428;2023-08-06T04:00:08;17.20;99.90
3944;DHT22;1986;52.546;13.428;2023-08-06T04:02:35;17.30;99.90
3944;DHT22;1986;52.546;13.428;2023-08-06T04:05:02;17.30;99.90
3944;DHT22;1986;52.546;13.428;2023-08-06T04:07:29;17.40;99.90
3944;DHT22;1986;52.546;13.428;2023-08-06T04:09:58;17.50;99.90
3944;DHT22;1986;52.546;13.428;2023-08-06T04:12:27;17.50;99.90
3944;DHT22;1986;52.546;13.428;2023-08-06T04:14:55;17.60;99.90
3944;DHT22;1986;52.546;13.428;2023-08-06T04:17:22;17.70;99.90
3944;DHT22;1986;52.546;13.428;2023-08-06T04:19:51;17.70;99.90
3944;DHT22;1986;52.546;13.428;2023-08-06T04:22:18;17.80;99.90
3944;DHT22;1986;52.546;13.428;2023-08-06T04:24:45;17.90;99.90
3944;DHT22;1986;52.546;13.428;2023-08-06T04:27:13;17.90;99.90
3944;DHT22;1986;52.546;13.428;2023-08-06T04:29:44;17.90;99.90
3944;DHT22;1986;52.546;13.428;2023-08-06T04:32:13;18.00;99.90
3944;DHT22;1986;52.546;13.428;2023-08-06T04:34:40;18.30;99.90
3944;DHT22;1986;52.546;13.428;2023-08-06T04:37:07;18.40;99.90
3944;DHT22;1986;52.546;13.428;2023-08-06T04:39:34;18.50;99.90
3944;DHT22;1986;52.546;13.428;2023-08-06T04:42:01;18.40;99.90
3944;DHT22;1986;52.546;13.428;2023-08-06T04:44:28;18.40;99.90
3944;DHT22;1986;52.546;13.428;2023-08-06T04:46:56;18.30;99.90
3944;DHT22;1986;52.546;13.428;2023-08-06T04:49:24;18.30;99.90
3944;DHT22;1986;52.546;13.428;2023-08-06T04:51:51;18.20;99.90
3944;DHT22;1986;52.546;13.428;2023-08-06T04:54:18;18.30;99.90
3944;DHT22;1986;52.546;13.428;2023-08-06T04:56:48;18.30;99.90
3944;DHT22;1986;52.546;13.428;2023-08-06T04:59:15;18.40;99.90
3944;DHT22;1986;52.546;13.428;2023-08-06T05:01:42;18.30;99.90
3944;DHT22;1986;52.546;13.428;2023-08-06T05:04:11;18.30;99.90
3944;DHT22;1986;52.546;13.428;2023-08-06T05:06:38;18.30;99.90
3944;DHT22;1986;52.546;13.428;2023-08-06T05:09:06;18.30;99.90
3944;DHT22;1986;52.546;13.428;2023-08-06T05:11:36;18.40;99.90
3944;DHT22;1986;52.546;13.428;2023-08-06T05:14:04;18.50;99.90
3944;DHT22;1986;52.546;13.428;2023-08-06T05:16:31;18.40;99.90
3944;DHT22;1986;52.546;13.428;2023-08-06T05:19:01;18.30;99.90
3944;DHT22;1986;52.546;13.428;2023-08-06T05:21:32;18.30;99.90
3944;DHT22;1986;52.546;13.428;2023-08-06T05:23:59;18.30;99.90
3944;DHT22;1986;52.546;13.428;2023-08-06T05:26:26;18.30;99.90
3944;DHT22;1986;52.546;13.428;2023-08-06T05:28:53;18.30;99.90
3944;DHT22;1986;52.546;13.428;2023-08-06T05:31:21;18.30;99.90
3944;DHT22;1986;52.546;13.428;2023-08-06T05:33:51;18.30;99.90
3944;DHT22;1986;52.546;13.428;2023-08-06T05:36:22;18.40;99.90
3944;DHT22;1986;52.546;13.428;2023-08-06T05:38:50;18.40;99.90
3944;DHT22;1986;52.546;13.428;2023-08-06T05:41:17;18.50;99.90
3944;DHT22;1986;52.546;13.428;2023-08-06T05:43:45;18.50;99.90
3944;DHT22;1986;52.546;13.428;2023-08-06T05:46:12;18.50;99.90
3944;DHT22;1986;52.546;13.428;2023-08-06T05:48:39;18.50;99.90
3944;DHT22;1986;52.546;13.428;2023-08-06T05:51:06;18.50;99.90
3944;DHT22;1986;52.546;13.428;2023-08-06T05:53:34;18.50;99.90
3944;DHT22;1986;52.546;13.428;2023-08-06T05:56:05;18.40;99.90
3944;DHT22;1986;52.546;13.428;2023-08-06T05:58:32;18.40;99.90
3944;DHT22;1986;52.546;13.428;2023-08-06T06:00:59;18.50;99.90
3944;DHT22;1986;52.546;13.428;2023-08-06T06:03:26;18.50;99.90
3944;DHT22;1986;52.546;13.428;2023-08-06T06:05:53;18.50;99.90
3944;DHT22;1986;52.546;13.428;2023-08-06T06:08:26;18.40;99.90
3944;DHT22;1986;52.546;13.428;2023-08-06T06:10:55;18.30;99.90
3944;DHT22;1986;52.546;13.428;2023-08-06T06:13:25;18.40;99.90
3944;DHT22;1986;52.546;13.428;2023-08-06T06:15:54;18.40;99.90
3944;DHT22;1986;52.546;13.428;2023-08-06T06:18:22;18.40;99.90
3944;DHT22;1986;52.546;13.428;2023-08-06T06:20:50;18.40;99.90
3944;DHT22;1986;52.546;13.428;2023-08-06T06:23:17;18.30;99.90
3944;DHT22;1986;52.546;13.428;2023-08-06T06:25:52;18.40;99.90
3944;DHT22;1986;52.546;13.428;2023-08-06T06:28:45;18.60;99.90
3944;DHT22;1986;52.546;13.428;2023-08-06T06:31:13;18.40;99.90
3944;DHT22;1986;52.546;13.428;2023-08-06T06:33:40;18.40;99.90
3944;DHT22;1986;52.546;13.428;2023-08-06T06:36:07;18.20;99.90
3944;DHT22;1986;52.546;13.428;2023-08-06T06:38:36;18.20;99.90
3944;DHT22;1986;52.546;13.428;2023-08-06T06:41:04;18.20;99.90
3944;DHT22;1986;52.546;13.428;2023-08-06T06:43:32;18.30;99.90
3944;DHT22;1986;52.546;13.428;2023-08-06T06:46:07;18.40;99.90
3944;DHT22;1986;52.546;13.428;2023-08-06T06:48:34;18.50;99.90
3944;DHT22;1986;52.546;13.428;2023-08-06T06:51:03;18.60;99.90
3944;DHT22;1986;52.546;13.428;2023-08-06T06:53:35;18.60;99.90
3944;DHT22;1986;52.546;13.428;2023-08-06T06:56:03;18.70;99.90
3944;DHT22;1986;52.546;13.428;2023-08-06T06:58:31;18.60;99.90
3944;DHT22;1986;52.546;13.428;2023-08-06T07:01:00;18.40;99.90
3944;DHT22;1986;52.546;13.428;2023-08-06T07:03:28;18.30;99.90
3944;DHT22;1986;52.546;13.428;2023-08-06T07:05:57;18.20;99.90
3944;DHT22;1986;52.546;13.428;2023-08-06T07:08:26;18.20;99.90
3944;DHT22;1986;52.546;13.428;2023-08-06T07:11:03;18.20;99.90
3944;DHT22;1986;52.546;13.428;2023-08-06T07:13:30;18.20;99.90
3944;DHT22;1986;52.546;13.428;2023-08-06T07:16:02;18.00;99.90
3944;DHT22;1986;52.546;13.428;2023-08-06T07:18:29;18.20;99.90
3944;DHT22;1986;52.546;13.428;2023-08-06T07:20:59;18.10;99.90
3944;DHT22;1986;52.546;13.428;2023-08-06T07:23:26;18.10;99.90
3944;DHT22;1986;52.546;13.428;2023-08-06T07:25:54;18.10;99.90
3944;DHT22;1986;52.546;13.428;2023-08-06T07:28:19;18.10;99.90
3944;DHT22;1986;52.546;13.428;2023-08-06T07:30:48;18.20;99.90
3944;DHT22;1986;52.546;13.428;2023-08-06T07:33:20;18.30;99.90
3944;DHT22;1986;52.546;13.428;2023-08-06T07:35:50;18.30;99.90
3944;DHT22;1986;52.546;13.428;2023-08-06T07:38:17;18.40;99.90
3944;DHT22;1986;52.546;13.428;2023-08-06T07:40:45;18.40;99.90
3944;DHT22;1986;52.546;13.428;2023-08-06T07:43:12;18.50;99.90
3944;DHT22;1986;52.546;13.428;2023-08-06T07:45:40;18.50;99.90
3944;DHT22;1986;52.546;13.428;2023-08-06T07:48:10;18.60;99.90
3944;DHT22;1986;52.546;13.428;2023-08-06T07:50:42;18.60;99.90
3944;DHT22;1986;52.546;13.428;2023-08-06T07:53:14;18.70;99.90
3944;DHT22;1986;52.546;13.428;2023-08-06T07:55:49;18.70;99.90
3944;DHT22;1986;52.546;13.428;2023-08-06T07:58:17;18.60;99.90
3944;DHT22;1986;52.546;13.428;2023-08-06T08:00:47;18.60;99.90
3944;DHT22;1986;52.546;13.428;2023-08-06T08:03:15;18.50;99.90
3944;DHT22;1986;52.546;13.428;2023-08-06T08:05:44;18.40;99.90
3944;DHT22;1986;52.546;13.428;2023-08-06T08:08:12;18.40;99.90
3944;DHT22;1986;52.546;13.428;2023-08-06T08:10:39;18.30;99.90
3944;DHT22;1986;52.546;13.428;2023-08-06T08:13:07;18.40;99.90
3944;DHT22;1986;52.546;13.428;2023-08-06T08:15:34;18.40;99.90
3944;DHT22;1986;52.546;13.428;2023-08-06T08:18:02;18.40;99.90
3944;DHT22;1986;52.546;13.428;2023-08-06T08:20:31;18.40;99.90
3944;DHT22;1986;52.546;13.428;2023-08-06T08:23:00;18.50;99.90
3944;DHT22;1986;52.546;13.428;2023-08-06T08:25:28;18.60;99.90
3944;DHT22;1986;52.546;13.428;2023-08-06T08:27:59;18.50;99.90
3944;DHT22;1986;52.546;13.428;2023-08-06T08:30:26;18.60;99.90
3944;DHT22;1986;52.546;13.428;2023-08-06T08:32:53;18.60;99.90
3944;DHT22;1986;52.546;13.428;2023-08-06T08:35:20;18.60;99.90
3944;DHT22;1986;52.546;13.428;2023-08-06T08:37:49;18.80;99.90
3944;DHT22;1986;52.546;13.428;2023-08-06T08:40:18;18.70;99.90
3944;DHT22;1986;52.546;13.428;2023-08-06T08:42:46;18.70;99.90
3944;DHT22;1986;52.546;13.428;2023-08-06T08:45:14;18.80;99.90
3944;DHT22;1986;52.546;13.428;2023-08-06T08:47:42;18.90;99.90
3944;DHT22;1986;52.546;13.428;2023-08-06T08:50:10;19.00;99.90
3944;DHT22;1986;52.546;13.428;2023-08-06T08:52:40;19.00;99.90
3944;DHT22;1986;52.546;13.428;2023-08-06T08:55:08;19.00;99.90
3944;DHT22;1986;52.546;13.428;2023-08-06T08:57:37;19.00;99.90
3944;DHT22;1986;52.546;13.428;2023-08-06T09:00:05;19.00;99.90
3944;DHT22;1986;52.546;13.428;2023-08-06T09:02:39;18.90;99.90
3944;DHT22;1986;52.546;13.428;2023-08-06T09:05:07;18.80;99.90
3944;DHT22;1986;52.546;13.428;2023-08-06T09:07:38;18.80;99.90
3944;DHT22;1986;52.546;13.428;2023-08-06T09:10:11;18.80;99.90
3944;DHT22;1986;52.546;13.428;2023-08-06T09:12:41;18.90;99.90
3944;DHT22;1986;52.546;13.428;2023-08-06T09:15:11;18.90;99.90
3944;DHT22;1986;52.546;13.428;2023-08-06T09:17:39;18.90;99.90
3944;DHT22;1986;52.546;13.428;2023-08-06T09:20:11;18.80;99.90
3944;DHT22;1986;52.546;13.428;2023-08-06T09:22:38;18.90;99.90
3944;DHT22;1986;52.546;13.428;2023-08-06T09:25:05;18.90;99.90
3944;DHT22;1986;52.546;13.428;2023-08-06T09:27:36;19.00;99.90
3944;DHT22;1986;52.546;13.428;2023-08-06T09:30:07;19.10;99.90
3944;DHT22;1986;52.546;13.428;2023-08-06T09:32:47;19.20;99.90
3944;DHT22;1986;52.546;13.428;2023-08-06T09:35:15;19.40;99.90
3944;DHT22;1986;52.546;13.428;2023-08-06T09:37:43;19.40;99.90
3944;DHT22;1986;52.546;13.428;2023-08-06T09:40:25;19.50;99.90
3944;DHT22;1986;52.546;13.428;2023-08-06T09:42:53;19.60;99.90
3944;DHT22;1986;52.546;13.428;2023-08-06T09:45:22;19.60;99.90
3944;DHT22;1986;52.546;13.428;2023-08-06T09:47:55;19.60;99.90
3944;DHT22;1986;52.546;13.428;2023-08-06T09:50:29;19.50;99.90
3944;DHT22;1986;52.546;13.428;2023-08-06T09:53:05;19.40;99.90
3944;DHT22;1986;52.546;13.428;2023-08-06T09:55:34;19.30;99.90
3944;DHT22;1986;52.546;13.428;2023-08-06T09:58:07;19.20;99.90
3944;DHT22;1986;52.546;13.428;2023-08-06T10:00:37;19.20;99.90
3944;DHT22;1986;52.546;13.428;2023-08-06T10:03:06;19.30;99.90
3944;DHT22;1986;52.546;13.428;2023-08-06T10:05:48;19.40;99.90
3944;DHT22;1986;52.546;13.428;2023-08-06T10:08:20;19.50;99.90
3944;DHT22;1986;52.546;13.428;2023-08-06T10:10:49;19.60;99.90
3944;DHT22;1986;52.546;13.428;2023-08-06T10:13:18;19.40;99.90
3944;DHT22;1986;52.546;13.428;2023-08-06T10:15:50;19.20;99.90
3944;DHT22;1986;52.546;13.428;2023-08-06T10:18:18;19.20;99.90
3944;DHT22;1986;52.546;13.428;2023-08-06T10:20:47;19.10;99.90
3944;DHT22;1986;52.546;13.428;2023-08-06T10:23:15;19.20;99.90
3944;DHT22;1986;52.546;13.428;2023-08-06T10:25:53;19.30;99.90
3944;DHT22;1986;52.546;13.428;2023-08-06T10:28:30;19.30;99.90
3944;DHT22;1986;52.546;13.428;2023-08-06T10:31:02;19.30;99.90
3944;DHT22;1986;52.546;13.428;2023-08-06T10:33:40;19.30;99.90
3944;DHT22;1986;52.546;13.428;2023-08-06T10:36:10;19.40;99.90
3944;DHT22;1986;52.546;13.428;2023-08-06T10:38:44;19.50;99.90
3944;DHT22;1986;52.546;13.428;2023-08-06T10:41:17;19.70;99.90
3944;DHT22;1986;52.546;13.428;2023-08-06T10:43:48;19.50;99.90
3944;DHT22;1986;52.546;13.428;2023-08-06T10:46:26;19.40;99.90
3944;DHT22;1986;52.546;13.428;2023-08-06T10:48:53;19.20;99.90
3944;DHT22;1986;52.546;13.428;2023-08-06T10:51:21;19.20;99.90
3944;DHT22;1986;52.546;13.428;2023-08-06T10:53:49;19.30;99.90
3944;DHT22;1986;52.546;13.428;2023-08-06T10:56:19;19.20;99.90
3944;DHT22;1986;52.546;13.428;2023-08-06T10:58:49;19.30;99.90
3944;DHT22;1986;52.546;13.428;2023-08-06T11:01:16;19.20;99.90
3944;DHT22;1986;52.546;13.428;2023-08-06T11:03:46;19.20;99.90
3944;DHT22;1986;52.546;13.428;2023-08-06T11:06:20;19.20;99.90
3944;DHT22;1986;52.546;13.428;2023-08-06T11:08:53;19.10;99.90
3944;DHT22;1986;52.546;13.428;2023-08-06T11:11:21;19.10;99.90
3944;DHT22;1986;52.546;13.428;2023-08-06T11:13:50;19.10;99.90
3944;DHT22;1986;52.546;13.428;2023-08-06T11:16:26;19.20;99.90
3944;DHT22;1986;52.546;13.428;2023-08-06T11:18:55;19.20;99.90
3944;DHT22;1986;52.546;13.428;2023-08-06T11:21:25;19.10;99.90
3944;DHT22;1986;52.546;13.428;2023-08-06T11:23:52;19.20;99.90
3944;DHT22;1986;52.546;13.428;2023-08-06T11:26:20;19.20;99.90
3944;DHT22;1986;52.546;13.428;2023-08-06T11:28:49;19.20;99.90
3944;DHT22;1986;52.546;13.428;2023-08-06T11:31:20;19.10;99.90
3944;DHT22;1986;52.546;13.428;2023-08-06T11:33:48;19.20;99.90
3944;DHT22;1986;52.546;13.428;2023-08-06T11:36:29;19.40;99.90
3944;DHT22;1986;52.546;13.428;2023-08-06T11:38:56;19.30;99.90
3944;DHT22;1986;52.546;13.428;2023-08-06T11:41:23;19.20;99.90
3944;DHT22;1986;52.546;13.428;2023-08-06T11:43:50;19.10;99.90
3944;DHT22;1986;52.546;13.428;2023-08-06T11:46:17;19.00;99.90
3944;DHT22;1986;52.546;13.428;2023-08-06T11:48:51;19.10;99.90
3944;DHT22;1986;52.546;13.428;2023-08-06T11:51:23;19.10;99.90
3944;DHT22;1986;52.546;13.428;2023-08-06T11:53:51;19.20;99.90
3944;DHT22;1986;52.546;13.428;2023-08-06T11:56:24;19.10;99.90
3944;DHT22;1986;52.546;13.428;2023-08-06T11:58:52;19.10;99.90
3944;DHT22;1986;52.546;13.428;2023-08-06T12:01:19;19.00;99.90
3944;DHT22;1986;52.546;13.428;2023-08-06T12:03:49;19.00;99.90
3944;DHT22;1986;52.546;13.428;2023-08-06T12:06:20;19.00;99.90
3944;DHT22;1986;52.546;13.428;2023-08-06T12:08:47;19.00;99.90
3944;DHT22;1986;52.546;13.428;2023-08-06T12:11:16;19.00;99.90
3944;DHT22;1986;52.546;13.428;2023-08-06T12:13:43;19.20;99.90
3944;DHT22;1986;52.546;13.428;2023-08-06T12:16:10;19.20;99.90
3944;DHT22;1986;52.546;13.428;2023-08-06T12:18:39;19.20;99.90
3944;DHT22;1986;52.546;13.428;2023-08-06T12:21:07;19.20;99.90
3944;DHT22;1986;52.546;13.428;2023-08-06T12:23:36;19.30;99.90
3944;DHT22;1986;52.546;13.428;2023-08-06T12:26:03;19.30;99.90
3944;DHT22;1986;52.546;13.428;2023-08-06T12:28:30;19.30;99.90
3944;DHT22;1986;52.546;13.428;2023-08-06T12:30:57;19.30;99.90
3944;DHT22;1986;52.546;13.428;2023-08-06T12:33:24;19.30;99.90
3944;DHT22;1986;52.546;13.428;2023-08-06T12:35:52;19.40;99.90
3944;DHT22;1986;52.546;13.428;2023-08-06T12:38:20;19.40;99.90
3944;DHT22;1986;52.546;13.428;2023-08-06T12:40:48;19.40;99.90
3944;DHT22;1986;52.546;13.428;2023-08-06T12:43:16;19.40;99.90
3944;DHT22;1986;52.546;13.428;2023-08-06T12:45:43;19.30;99.90
3944;DHT22;1986;52.546;13.428;2023-08-06T12:48:10;19.20;99.90
3944;DHT22;1986;52.546;13.428;2023-08-06T12:50:39;19.20;99.90
3944;DHT22;1986;52.546;13.428;2023-08-06T12:53:05;19.40;99.90
3944;DHT22;1986;52.546;13.428;2023-08-06T12:55:32;19.40;99.90
3944;DHT22;1986;52.546;13.428;2023-08-06T12:58:01;19.20;99.90
3944;DHT22;1986;52.546;13.428;2023-08-06T13:00:31;19.20;99.90
3944;DHT22;1986;52.546;13.428;2023-08-06T13:02:58;19.10;99.90
3944;DHT22;1986;52.546;13.428;2023-08-06T13:05:25;19.00;99.90
3944;DHT22;1986;52.546;13.428;2023-08-06T13:07:52;19.10;99.90
3944;DHT22;1986;52.546;13.428;2023-08-06T13:10:19;19.10;99.90
3944;DHT22;1986;52.546;13.428;2023-08-06T13:12:47;19.00;99.90
3944;DHT22;1986;52.546;13.428;2023-08-06T13:15:21;19.10;99.90
3944;DHT22;1986;52.546;13.428;2023-08-06T13:17:51;19.10;99.90
3944;DHT22;1986;52.546;13.428;2023-08-06T13:20:18;19.10;99.90
3944;DHT22;1986;52.546;13.428;2023-08-06T13:22:46;19.00;99.90
3944;DHT22;1986;52.546;13.428;2023-08-06T13:25:18;19.00;99.90
3944;DHT22;1986;52.546;13.428;2023-08-06T13:27:46;19.10;99.90
3944;DHT22;1986;52.546;13.428;2023-08-06T13:30:14;19.20;99.90
3944;DHT22;1986;52.546;13.428;2023-08-06T13:32:42;19.30;99.90
3944;DHT22;1986;52.546;13.428;2023-08-06T13:35:17;19.20;99.90
3944;DHT22;1986;52.546;13.428;2023-08-06T13:37:44;19.10;99.90
3944;DHT22;1986;52.546;13.428;2023-08-06T13:40:13;19.10;99.90
3944;DHT22;1986;52.546;13.428;2023-08-06T13:42:40;19.10;99.90
3944;DHT22;1986;52.546;13.428;2023-08-06T13:45:08;19.20;99.90
3944;DHT22;1986;52.546;13.428;2023-08-06T13:47:37;19.20;99.90
3944;DHT22;1986;52.546;13.428;2023-08-06T13:50:05;19.20;99.90
3944;DHT22;1986;52.546;13.428;2023-08-06T13:52:33;19.30;99.90
3944;DHT22;1986;52.546;13.428;2023-08-06T13:55:00;19.20;99.90
3944;DHT22;1986;52.546;13.428;2023-08-06T13:57:29;19.30;99.90
3944;DHT22;1986;52.546;13.428;2023-08-06T13:59:56;19.20;99.90
3944;DHT22;1986;52.546;13.428;2023-08-06T14:02:23;19.10;99.90
3944;DHT22;1986;52.546;13.428;2023-08-06T14:04:55;19.10;99.90
3944;DHT22;1986;52.546;13.428;2023-08-06T14:07:24;19.00;99.90
3944;DHT22;1986;52.546;13.428;2023-08-06T14:09:51;19.10;99.90
3944;DHT22;1986;52.546;13.428;2023-08-06T14:12:18;19.10;99.90
3944;DHT22;1986;52.546;13.428;2023-08-06T14:14:45;19.00;99.90
3944;DHT22;1986;52.546;13.428;2023-08-06T14:17:12;18.90;99.90
3944;DHT22;1986;52.546;13.428;2023-08-06T14:19:39;19.00;99.90
3944;DHT22;1986;52.546;13.428;2023-08-06T14:22:08;18.90;99.90
3944;DHT22;1986;52.546;13.428;2023-08-06T14:24:35;18.80;99.90
3944;DHT22;1986;52.546;13.428;2023-08-06T14:27:03;18.80;99.90
3944;DHT22;1986;52.546;13.428;2023-08-06T14:29:31;18.80;99.90
3944;DHT22;1986;52.546;13.428;2023-08-06T14:31:58;18.80;99.90
3944;DHT22;1986;52.546;13.428;2023-08-06T14:34:27;18.70;99.90
3944;DHT22;1986;52.546;13.428;2023-08-06T14:36:54;18.60;99.90
3944;DHT22;1986;52.546;13.428;2023-08-06T14:39:39;18.60;99.90
3944;DHT22;1986;52.546;13.428;2023-08-06T14:42:10;18.50;99.90
3944;DHT22;1986;52.546;13.428;2023-08-06T14:44:38;18.40;99.90
3944;DHT22;1986;52.546;13.428;2023-08-06T14:47:15;18.40;99.90
3944;DHT22;1986;52.546;13.428;2023-08-06T14:49:59;18.40;99.90
3944;DHT22;1986;52.546;13.428;2023-08-06T14:52:26;18.30;99.90
3944;DHT22;1986;52.546;13.428;2023-08-06T14:54:55;18.40;99.90
3944;DHT22;1986;52.546;13.428;2023-08-06T14:57:22;18.40;99.90
3944;DHT22;1986;52.546;13.428;2023-08-06T14:59:53;18.40;99.90
3944;DHT22;1986;52.546;13.428;2023-08-06T15:02:20;18.30;99.90
3944;DHT22;1986;52.546;13.428;2023-08-06T15:04:50;18.40;99.90
3944;DHT22;1986;52.546;13.428;2023-08-06T15:07:17;18.40;99.90
3944;DHT22;1986;52.546;13.428;2023-08-06T15:09:47;18.30;99.90
3944;DHT22;1986;52.546;13.428;2023-08-06T15:12:16;18.30;99.90
3944;DHT22;1986;52.546;13.428;2023-08-06T15:14:43;18.20;99.90
3944;DHT22;1986;52.546;13.428;2023-08-06T15:17:10;18.10;99.90
3944;DHT22;1986;52.546;13.428;2023-08-06T15:19:37;18.00;99.90
3944;DHT22;1986;52.546;13.428;2023-08-06T15:22:04;18.10;99.90
3944;DHT22;1986;52.546;13.428;2023-08-06T15:24:32;18.10;99.90
3944;DHT22;1986;52.546;13.428;2023-08-06T15:26:59;18.20;99.90
3944;DHT22;1986;52.546;13.428;2023-08-06T15:29:27;18.40;99.90
3944;DHT22;1986;52.546;13.428;2023-08-06T15:31:54;18.40;99.90
3944;DHT22;1986;52.546;13.428;2023-08-06T15:34:21;18.30;99.90
3944;DHT22;1986;52.546;13.428;2023-08-06T15:36:50;18.40;99.90
3944;DHT22;1986;52.546;13.428;2023-08-06T15:39:17;18.40;99.90
3944;DHT22;1986;52.546;13.428;2023-08-06T15:41:44;18.40;99.90
3944;DHT22;1986;52.546;13.428;2023-08-06T15:44:11;18.30;99.90
3944;DHT22;1986;52.546;13.428;2023-08-06T15:46:40;18.40;99.90
3944;DHT22;1986;52.546;13.428;2023-08-06T15:49:09;18.40;99.90
3944;DHT22;1986;52.546;13.428;2023-08-06T15:51:36;18.40;99.90
3944;DHT22;1986;52.546;13.428;2023-08-06T15:54:03;18.50;99.90